createdAt,value
2019-03-26T00:01:33.246Z,50.70
2019-03-26T00:03:38.653Z,50.80
2019-03-26T00:05:43.965Z,50.70
2019-03-26T00:07:49.272Z,50.70
2019-03-26T00:09:56.185Z,50.50
2019-03-26T00:12:01.593Z,50.40
2019-03-26T00:14:07.076Z,50.50
2019-03-26T00:16:12.564Z,50.40
2019-03-26T00:18:17.989Z,50.40
2019-03-26T00:20:23.286Z,50.40
2019-03-26T00:22:28.645Z,50.40
2019-03-26T00:24:34.044Z,50.40
2019-03-26T00:26:39.461Z,50.40
2019-03-26T00:28:44.765Z,50.40
2019-03-26T00:30:50.145Z,50.30
2019-03-26T00:32:55.587Z,50.30
2019-03-26T00:35:00.936Z,50.40
2019-03-26T00:37:06.279Z,50.30
2019-03-26T00:39:11.571Z,50.30
2019-03-26T00:41:16.900Z,50.80
2019-03-26T00:43:22.246Z,50.10
2019-03-26T00:45:27.582Z,50.10
2019-03-26T00:47:32.853Z,50.30
2019-03-26T00:49:38.155Z,50.20
2019-03-26T00:51:43.502Z,50.20
2019-03-26T00:53:48.855Z,50.10
2019-03-26T00:55:54.234Z,50.10
2019-03-26T00:58:01.663Z,49.90
2019-03-26T01:00:07.115Z,50.00
2019-03-26T01:02:12.643Z,49.90
2019-03-26T01:04:18.115Z,50.00
2019-03-26T01:06:23.482Z,49.90
2019-03-26T01:08:28.799Z,49.90
2019-03-26T01:10:34.192Z,49.90
2019-03-26T01:12:39.542Z,50.00
2019-03-26T01:14:45.056Z,49.90
2019-03-26T01:16:50.443Z,49.80
2019-03-26T01:18:55.875Z,50.00
2019-03-26T01:21:01.155Z,50.00
2019-03-26T01:23:06.437Z,49.80
2019-03-26T01:25:11.899Z,49.90
2019-03-26T01:27:17.205Z,49.70
2019-03-26T01:29:22.494Z,49.80
2019-03-26T01:31:27.825Z,49.60
2019-03-26T01:33:33.081Z,49.80
2019-03-26T01:35:38.328Z,49.70
2019-03-26T01:37:44.022Z,49.70
2019-03-26T01:39:49.374Z,49.70
2019-03-26T01:41:54.701Z,49.50
2019-03-26T01:43:59.984Z,49.60
2019-03-26T01:46:05.215Z,49.70
2019-03-26T01:48:10.600Z,49.50
2019-03-26T01:50:15.873Z,49.70
2019-03-26T01:52:21.109Z,49.60
2019-03-26T01:54:26.378Z,49.50
2019-03-26T01:56:31.653Z,49.50
2019-03-26T01:58:37.100Z,49.40
2019-03-26T02:00:42.332Z,49.50
2019-03-26T02:02:47.608Z,49.30
2019-03-26T02:04:59.740Z,49.40
2019-03-26T02:06:59.858Z,49.40
2019-03-26T02:09:05.783Z,49.50
2019-03-26T02:11:11.140Z,49.60
2019-03-26T02:13:16.506Z,49.50
2019-03-26T02:15:40.836Z,49.40
2019-03-26T02:17:46.122Z,49.50
2019-03-26T02:19:51.435Z,49.30
2019-03-26T02:21:57.729Z,50.00
2019-03-26T02:24:03.392Z,49.50
2019-03-26T02:26:08.650Z,49.20
2019-03-26T02:28:13.901Z,49.40
2019-03-26T02:30:19.209Z,49.30
2019-03-26T02:32:24.477Z,49.30
2019-03-26T02:34:29.762Z,49.30
2019-03-26T02:36:35.060Z,49.10
2019-03-26T02:38:40.360Z,49.20
2019-03-26T02:40:45.639Z,49.20
2019-03-26T02:42:51.027Z,49.20
2019-03-26T02:44:56.377Z,49.00
2019-03-26T02:47:01.750Z,48.90
2019-03-26T02:49:07.080Z,49.10
2019-03-26T02:51:12.459Z,48.90
2019-03-26T02:53:17.799Z,49.70
2019-03-26T02:55:23.123Z,49.20
2019-03-26T02:57:28.734Z,49.10
2019-03-26T02:59:34.054Z,49.10
2019-03-26T03:01:39.305Z,48.90
2019-03-26T03:03:44.624Z,48.90
2019-03-26T03:05:49.905Z,48.90
2019-03-26T03:07:57.220Z,49.10
2019-03-26T03:10:02.556Z,49.00
2019-03-26T03:12:08.035Z,49.00
2019-03-26T03:14:13.618Z,48.90
2019-03-26T03:16:18.863Z,49.00
2019-03-26T03:18:24.114Z,48.90
2019-03-26T03:20:29.466Z,48.70
2019-03-26T03:22:34.843Z,48.90
2019-03-26T03:24:40.178Z,48.90
2019-03-26T03:26:45.561Z,48.90
2019-03-26T03:28:50.981Z,48.90
2019-03-26T03:30:56.525Z,48.90
2019-03-26T03:33:01.914Z,48.80
2019-03-26T03:35:07.453Z,48.90
2019-03-26T03:37:12.754Z,49.00
2019-03-26T03:39:18.027Z,48.80
2019-03-26T03:41:23.352Z,48.80
2019-03-26T03:43:28.734Z,48.80
2019-03-26T03:45:34.113Z,48.70
2019-03-26T03:47:39.432Z,48.60
2019-03-26T03:49:44.772Z,48.80
2019-03-26T03:51:50.426Z,48.80
2019-03-26T03:53:55.765Z,48.80
2019-03-26T03:56:01.067Z,48.70
2019-03-26T03:58:06.475Z,48.70
2019-03-26T04:00:34.452Z,48.50
2019-03-26T04:02:39.901Z,48.70
2019-03-26T04:04:45.393Z,48.60
2019-03-26T04:06:52.023Z,48.70
2019-03-26T04:08:57.397Z,48.50
2019-03-26T04:11:02.702Z,48.60
2019-03-26T04:13:08.056Z,48.50
2019-03-26T04:15:13.390Z,48.50
2019-03-26T04:17:18.755Z,48.50
2019-03-26T04:19:24.041Z,48.50
2019-03-26T04:21:29.397Z,48.50
2019-03-26T04:23:34.739Z,48.50
2019-03-26T04:25:39.993Z,48.50
2019-03-26T04:27:45.241Z,48.50
2019-03-26T04:29:50.526Z,48.40
2019-03-26T04:31:55.815Z,48.30
2019-03-26T04:34:01.142Z,48.50
2019-03-26T04:36:06.445Z,48.40
2019-03-26T04:38:11.893Z,48.20
2019-03-26T04:40:17.285Z,48.30
2019-03-26T04:42:23.995Z,48.20
2019-03-26T04:44:29.356Z,48.30
2019-03-26T04:46:34.769Z,48.20
2019-03-26T04:48:40.247Z,48.40
2019-03-26T04:50:45.563Z,48.30
2019-03-26T04:52:52.144Z,48.30
2019-03-26T04:54:57.654Z,48.30
2019-03-26T04:57:02.956Z,48.30
2019-03-26T04:59:08.220Z,48.50
2019-03-26T05:01:13.574Z,48.20
2019-03-26T05:03:18.957Z,48.40
2019-03-26T05:05:26.020Z,48.30
2019-03-26T05:07:31.366Z,48.20
2019-03-26T05:09:36.645Z,48.20
2019-03-26T05:11:43.236Z,48.20
2019-03-26T05:13:48.843Z,48.40
2019-03-26T05:15:54.209Z,48.10
2019-03-26T05:17:59.496Z,48.10
2019-03-26T05:20:05.276Z,48.10
2019-03-26T05:22:23.275Z,48.20
2019-03-26T05:24:17.688Z,47.90
2019-03-26T05:26:22.989Z,48.10
2019-03-26T05:28:28.224Z,48.10
2019-03-26T05:30:33.508Z,48.10
2019-03-26T05:32:38.931Z,48.00
2019-03-26T05:34:44.289Z,47.90
2019-03-26T05:36:51.761Z,47.90
2019-03-26T05:38:57.221Z,47.90
2019-03-26T05:41:02.655Z,47.90
2019-03-26T05:43:08.016Z,48.10
2019-03-26T05:45:13.314Z,48.10
2019-03-26T05:47:18.678Z,48.00
2019-03-26T05:49:24.046Z,48.00
2019-03-26T05:51:29.313Z,48.00
2019-03-26T05:53:34.633Z,48.00
2019-03-26T05:55:39.979Z,48.10
2019-03-26T05:57:45.290Z,48.00
2019-03-26T05:59:50.555Z,48.10
2019-03-26T06:01:56.074Z,48.20
2019-03-26T06:04:01.519Z,47.90
2019-03-26T06:06:06.818Z,48.00
2019-03-26T06:08:12.240Z,48.30
2019-03-26T06:10:17.600Z,48.60
2019-03-26T06:12:23.006Z,48.80
2019-03-26T06:14:28.438Z,48.80
2019-03-26T06:16:38.471Z,49.00
2019-03-26T06:18:40.970Z,49.00
2019-03-26T06:20:46.529Z,49.00
2019-03-26T06:22:51.897Z,48.80
2019-03-26T06:24:57.230Z,48.90
2019-03-26T06:27:02.600Z,49.10
2019-03-26T06:29:07.974Z,49.10
2019-03-26T06:31:13.354Z,49.20
2019-03-26T06:33:19.764Z,49.30
2019-03-26T06:35:25.162Z,49.40
2019-03-26T06:37:30.486Z,49.40
2019-03-26T06:39:35.894Z,49.40
2019-03-26T06:41:41.254Z,49.50
2019-03-26T06:43:46.765Z,49.50
2019-03-26T06:45:52.155Z,49.50
2019-03-26T06:47:57.550Z,49.50
2019-03-26T06:50:02.920Z,49.50
2019-03-26T06:52:08.360Z,49.90
2019-03-26T06:54:13.713Z,49.70
2019-03-26T06:56:19.944Z,49.60
2019-03-26T06:58:25.262Z,49.70
2019-03-26T07:00:31.254Z,49.60
2019-03-26T07:02:37.417Z,49.80
2019-03-26T07:04:48.850Z,49.70
2019-03-26T07:06:54.173Z,49.90
2019-03-26T07:08:59.587Z,49.80
2019-03-26T07:11:05.937Z,49.70
2019-03-26T07:13:11.476Z,49.90
2019-03-26T07:15:16.935Z,50.00
2019-03-26T07:17:22.356Z,50.10
2019-03-26T07:19:28.623Z,50.20
2019-03-26T07:21:33.838Z,50.40
2019-03-26T07:23:39.415Z,50.50
2019-03-26T07:25:46.060Z,51.20
2019-03-26T07:27:51.431Z,50.60
2019-03-26T07:29:59.986Z,50.60
2019-03-26T07:32:05.389Z,50.60
2019-03-26T07:34:10.735Z,50.50
2019-03-26T07:36:16.036Z,50.50
2019-03-26T07:38:21.376Z,50.70
2019-03-26T07:40:27.897Z,50.70
2019-03-26T07:42:33.240Z,50.50
2019-03-26T07:44:38.540Z,50.50
2019-03-26T07:46:43.915Z,50.50
2019-03-26T07:48:49.247Z,50.40
2019-03-26T07:50:55.493Z,50.40
2019-03-26T07:53:00.801Z,50.40
2019-03-26T07:55:06.746Z,50.40
2019-03-26T07:57:12.402Z,50.40
2019-03-26T07:59:17.745Z,50.20
2019-03-26T08:01:23.155Z,50.20
2019-03-26T08:03:28.500Z,50.20
2019-03-26T08:05:33.999Z,50.20
2019-03-26T08:07:39.365Z,50.20
2019-03-26T08:09:44.715Z,50.20
2019-03-26T08:11:50.125Z,50.10
2019-03-26T08:13:55.457Z,50.10
2019-03-26T08:16:00.798Z,50.00
2019-03-26T08:18:06.156Z,50.60
2019-03-26T08:20:12.677Z,50.00
2019-03-26T08:22:18.293Z,50.00
2019-03-26T08:24:23.635Z,50.00
2019-03-26T08:26:28.949Z,50.00
2019-03-26T08:28:34.497Z,49.90
2019-03-26T08:30:39.849Z,49.90
2019-03-26T08:32:45.159Z,49.80
2019-03-26T08:34:50.520Z,49.80
2019-03-26T08:36:55.836Z,49.80
2019-03-26T08:39:01.278Z,49.70
2019-03-26T08:41:08.276Z,49.70
2019-03-26T08:43:13.539Z,49.60
2019-03-26T08:45:19.863Z,49.60
2019-03-26T08:47:25.180Z,49.70
2019-03-26T08:49:31.124Z,49.60
2019-03-26T08:51:36.512Z,49.50
2019-03-26T08:53:41.844Z,49.60
2019-03-26T08:55:47.224Z,49.60
2019-03-26T08:57:52.556Z,49.60
2019-03-26T08:59:57.973Z,49.60
2019-03-26T09:02:03.308Z,49.60
2019-03-26T09:04:08.895Z,49.50
2019-03-26T09:06:14.196Z,50.10
2019-03-26T09:08:25.382Z,49.40
2019-03-26T09:10:28.315Z,49.40
2019-03-26T09:12:39.261Z,49.50
2019-03-26T09:14:43.221Z,49.50
2019-03-26T09:16:48.520Z,49.60
2019-03-26T09:18:53.838Z,49.50
2019-03-26T09:20:59.109Z,49.50
2019-03-26T09:23:04.376Z,49.40
2019-03-26T09:25:09.906Z,49.40
2019-03-26T09:27:15.216Z,49.50
2019-03-26T09:29:20.556Z,49.40
2019-03-26T09:31:25.876Z,49.50
2019-03-26T09:33:31.136Z,49.50
2019-03-26T09:35:36.530Z,49.50
2019-03-26T09:37:41.879Z,49.50
2019-03-26T09:39:48.039Z,49.50
2019-03-26T09:41:53.489Z,49.50
2019-03-26T09:43:59.012Z,49.60
2019-03-26T09:46:05.460Z,49.60
2019-03-26T09:48:10.886Z,49.60
2019-03-26T09:50:21.835Z,49.70
2019-03-26T09:52:27.393Z,50.40
2019-03-26T09:54:32.837Z,50.70
2019-03-26T09:56:38.096Z,50.70
2019-03-26T09:58:44.433Z,50.80
2019-03-26T10:00:50.138Z,51.00
2019-03-26T10:02:55.780Z,51.10
2019-03-26T10:05:01.183Z,51.00
2019-03-26T10:07:20.528Z,50.30
2019-03-26T10:09:15.148Z,50.70
2019-03-26T10:11:20.458Z,50.70
2019-03-26T10:13:25.771Z,50.80
2019-03-26T10:15:34.255Z,51.00
2019-03-26T10:17:39.715Z,51.00
2019-03-26T10:19:45.124Z,51.00
2019-03-26T10:21:50.476Z,51.00
2019-03-26T10:23:56.833Z,51.10
2019-03-26T10:26:02.123Z,51.20
2019-03-26T10:28:07.539Z,51.10
2019-03-26T10:30:13.257Z,51.10
2019-03-26T10:32:18.564Z,51.10
2019-03-26T10:34:23.917Z,51.20
2019-03-26T10:36:29.334Z,51.10
2019-03-26T10:38:34.757Z,51.10
2019-03-26T10:40:40.287Z,51.10
2019-03-26T10:42:45.685Z,51.20
2019-03-26T10:44:51.014Z,51.10
2019-03-26T10:46:56.317Z,51.10
2019-03-26T10:49:03.161Z,51.10
2019-03-26T10:51:08.497Z,51.10
2019-03-26T10:53:16.495Z,51.00
2019-03-26T10:55:22.456Z,51.00
2019-03-26T10:57:27.765Z,51.00
2019-03-26T10:59:33.034Z,51.00
2019-03-26T11:01:38.857Z,50.90
2019-03-26T11:03:45.977Z,50.80
2019-03-26T11:05:52.604Z,50.90
2019-03-26T11:07:57.909Z,50.80
2019-03-26T11:10:03.209Z,51.60
2019-03-26T11:12:08.602Z,50.90
2019-03-26T11:14:13.957Z,51.00
2019-03-26T11:16:19.204Z,51.00
2019-03-26T11:18:24.681Z,50.90
2019-03-26T11:20:36.903Z,50.80
2019-03-26T11:22:55.012Z,50.70
2019-03-26T11:25:01.495Z,50.60
2019-03-26T11:27:14.420Z,51.30
2019-03-26T11:29:21.124Z,50.50
2019-03-26T11:31:29.872Z,50.50
2019-03-26T11:33:33.701Z,50.50
2019-03-26T11:35:39.027Z,50.40
2019-03-26T11:37:44.485Z,50.30
2019-03-26T11:39:49.899Z,50.30
2019-03-26T11:41:55.276Z,50.20
2019-03-26T11:44:00.607Z,50.10
2019-03-26T11:46:06.083Z,50.10
2019-03-26T11:48:11.392Z,49.90
2019-03-26T11:50:17.021Z,49.90
2019-03-26T11:52:24.103Z,49.70
2019-03-26T11:54:29.451Z,49.70
2019-03-26T11:56:34.825Z,49.70
2019-03-26T11:58:40.320Z,49.60
2019-03-26T12:00:45.657Z,49.60
2019-03-26T12:02:50.935Z,49.40
2019-03-26T12:04:56.216Z,49.30
2019-03-26T12:07:01.619Z,49.30
2019-03-26T12:09:08.276Z,49.30
2019-03-26T12:11:13.771Z,49.40
2019-03-26T12:13:19.165Z,49.30
2019-03-26T12:15:24.648Z,49.30
2019-03-26T12:17:30.088Z,48.80
2019-03-26T12:19:35.528Z,49.10
2019-03-26T12:21:40.875Z,49.00
2019-03-26T12:23:46.216Z,48.90
2019-03-26T12:25:51.483Z,49.00
2019-03-26T12:27:56.743Z,48.80
2019-03-26T12:30:02.040Z,48.80
2019-03-26T12:32:07.452Z,48.70
2019-03-26T12:34:12.837Z,48.70
2019-03-26T12:36:18.134Z,48.70
2019-03-26T12:38:24.637Z,48.60
2019-03-26T12:40:29.981Z,48.60
2019-03-26T12:42:35.332Z,48.60
2019-03-26T12:44:40.600Z,48.50
2019-03-26T12:46:45.906Z,48.50
2019-03-26T12:48:51.229Z,48.40
2019-03-26T12:50:56.644Z,48.30
2019-03-26T12:53:02.081Z,48.90
2019-03-26T12:55:07.411Z,48.30
2019-03-26T12:57:14.057Z,48.20
2019-03-26T12:59:19.529Z,48.20
2019-03-26T13:01:24.865Z,48.30
2019-03-26T13:03:30.160Z,48.00
2019-03-26T13:05:35.461Z,48.00
2019-03-26T13:07:40.818Z,48.00
2019-03-26T13:09:46.662Z,47.90
2019-03-26T13:11:53.156Z,48.00
2019-03-26T13:14:02.112Z,48.00
2019-03-26T13:16:07.484Z,47.70
2019-03-26T13:18:12.839Z,48.00
2019-03-26T13:20:18.183Z,48.00
2019-03-26T13:22:23.486Z,47.80
2019-03-26T13:24:28.782Z,47.40
2019-03-26T13:26:34.157Z,47.60
2019-03-26T13:28:39.710Z,47.70
2019-03-26T13:30:45.009Z,47.50
2019-03-26T13:33:27.140Z,47.70
2019-03-26T13:35:35.948Z,47.60
2019-03-26T13:37:41.367Z,47.60
2019-03-26T13:39:46.702Z,47.40
2019-03-26T13:41:52.084Z,47.30
2019-03-26T13:43:57.437Z,47.10
2019-03-26T13:46:02.747Z,47.30
2019-03-26T13:48:08.118Z,47.30
2019-03-26T13:50:14.415Z,47.30
2019-03-26T13:52:19.734Z,47.30
2019-03-26T13:54:25.036Z,47.20
2019-03-26T13:56:30.368Z,47.10
2019-03-26T13:58:35.727Z,47.60
2019-03-26T14:00:42.945Z,47.00
2019-03-26T14:02:48.456Z,47.00
2019-03-26T14:04:53.806Z,47.00
2019-03-26T14:06:59.038Z,46.80
2019-03-26T14:09:05.905Z,47.20
2019-03-26T14:11:11.300Z,46.90
2019-03-26T14:13:17.082Z,46.70
2019-03-26T14:15:23.502Z,46.90
2019-03-26T14:17:28.784Z,47.20
2019-03-26T14:19:34.416Z,46.70
2019-03-26T14:21:39.828Z,47.00
2019-03-26T14:23:49.354Z,47.10
2019-03-26T14:25:55.306Z,47.00
2019-03-26T14:28:00.815Z,46.80
2019-03-26T14:30:07.130Z,46.50
2019-03-26T14:32:12.445Z,46.40
2019-03-26T14:34:17.889Z,46.60
2019-03-26T14:36:23.235Z,46.40
2019-03-26T14:38:28.667Z,46.40
2019-03-26T14:40:33.946Z,46.30
2019-03-26T14:42:45.622Z,46.30
2019-03-26T14:44:51.904Z,46.40
2019-03-26T14:46:57.190Z,46.40
2019-03-26T14:49:03.568Z,46.50
2019-03-26T14:51:09.036Z,46.60
2019-03-26T14:53:14.247Z,46.70
2019-03-26T14:55:19.537Z,46.80
2019-03-26T14:57:30.844Z,46.90
2019-03-26T14:59:36.419Z,46.90
2019-03-26T15:01:41.735Z,46.90
2019-03-26T15:03:47.131Z,47.10
2019-03-26T15:05:52.544Z,47.00
2019-03-26T15:07:57.971Z,47.00
2019-03-26T15:10:03.555Z,47.00
2019-03-26T15:12:18.146Z,47.10
2019-03-26T15:14:23.460Z,47.10
2019-03-26T15:16:28.790Z,47.20
2019-03-26T15:18:36.306Z,47.30
2019-03-26T15:20:54.710Z,47.30
2019-03-26T15:23:00.674Z,47.30
2019-03-26T15:25:06.044Z,47.40
2019-03-26T15:27:11.476Z,47.40
2019-03-26T15:29:16.821Z,47.40
2019-03-26T15:31:22.231Z,47.50
2019-03-26T15:33:27.579Z,47.50
2019-03-26T15:35:32.856Z,47.60
2019-03-26T15:37:40.748Z,47.60
2019-03-26T15:39:46.203Z,47.70
2019-03-26T15:41:51.518Z,47.70
2019-03-26T15:43:56.839Z,47.70
2019-03-26T15:46:02.240Z,47.70
2019-03-26T15:48:08.591Z,47.80
2019-03-26T15:50:16.362Z,47.80
2019-03-26T15:52:21.683Z,47.90
2019-03-26T15:54:26.987Z,47.90
2019-03-26T15:56:32.302Z,48.00
2019-03-26T15:58:38.136Z,48.00
2019-03-26T16:00:43.555Z,47.60
2019-03-26T16:02:48.934Z,48.00
2019-03-26T16:04:54.263Z,48.10
2019-03-26T16:06:59.787Z,48.10
2019-03-26T16:09:07.151Z,48.10
2019-03-26T16:11:13.136Z,48.10
2019-03-26T16:13:18.556Z,48.20
2019-03-26T16:15:23.916Z,48.20
2019-03-26T16:17:29.292Z,48.30
2019-03-26T16:19:36.585Z,48.20
2019-03-26T16:21:42.376Z,48.30
2019-03-26T16:23:48.375Z,48.30
2019-03-26T16:25:53.614Z,48.30
2019-03-26T16:27:59.010Z,48.40
2019-03-26T16:30:04.969Z,48.50
2019-03-26T16:32:10.713Z,48.40
2019-03-26T16:34:16.088Z,48.40
2019-03-26T16:36:23.227Z,48.50
2019-03-26T16:38:28.525Z,48.40
2019-03-26T16:40:33.913Z,48.50
2019-03-26T16:42:39.421Z,48.50
2019-03-26T16:44:44.693Z,48.60
2019-03-26T16:46:50.029Z,48.60
2019-03-26T16:48:55.373Z,48.60
2019-03-26T16:51:00.673Z,48.70
2019-03-26T16:53:06.012Z,48.70
2019-03-26T16:55:11.361Z,48.70
2019-03-26T16:57:16.760Z,48.70
2019-03-26T16:59:23.159Z,48.70
2019-03-26T17:01:28.615Z,48.80
2019-03-26T17:03:34.315Z,48.80
2019-03-26T17:05:39.528Z,48.90
2019-03-26T17:07:46.109Z,48.90
2019-03-26T17:09:51.802Z,48.90
2019-03-26T17:12:03.343Z,48.90
2019-03-26T17:14:04.628Z,48.90
2019-03-26T17:16:10.064Z,48.90
2019-03-26T17:18:15.479Z,48.90
2019-03-26T17:20:23.877Z,48.90
2019-03-26T17:22:28.177Z,49.00
2019-03-26T17:24:33.516Z,49.00
2019-03-26T17:26:39.013Z,49.10
2019-03-26T17:28:44.375Z,49.10
2019-03-26T17:30:49.707Z,49.10
2019-03-26T17:32:55.158Z,49.00
2019-03-26T17:35:01.042Z,49.10
2019-03-26T17:37:07.627Z,49.10
2019-03-26T17:39:13.294Z,49.00
2019-03-26T17:41:18.695Z,49.00
2019-03-26T17:43:24.255Z,48.90
2019-03-26T17:45:30.819Z,48.70
2019-03-26T17:47:36.175Z,48.80
2019-03-26T17:49:41.588Z,48.70
2019-03-26T17:51:47.078Z,48.60
2019-03-26T17:53:53.355Z,48.60
2019-03-26T17:55:58.816Z,48.60
2019-03-26T17:58:04.287Z,48.60
2019-03-26T18:00:11.860Z,48.50
2019-03-26T18:02:18.216Z,48.40
2019-03-26T18:04:24.017Z,48.40
2019-03-26T18:06:29.416Z,48.30
2019-03-26T18:08:36.218Z,48.30
2019-03-26T18:10:41.565Z,48.20
2019-03-26T18:12:46.886Z,48.10
2019-03-26T18:14:52.439Z,48.10
2019-03-26T18:16:57.791Z,48.00
2019-03-26T18:19:03.221Z,48.00
2019-03-26T18:21:08.535Z,47.90
2019-03-26T18:23:13.844Z,47.90
2019-03-26T18:25:19.291Z,47.90
2019-03-26T18:27:24.809Z,47.80
2019-03-26T18:29:30.154Z,47.80
2019-03-26T18:31:35.493Z,47.30
2019-03-26T18:33:40.859Z,47.70
2019-03-26T18:35:47.205Z,47.50
2019-03-26T18:37:52.537Z,47.70
2019-03-26T18:39:57.878Z,47.60
2019-03-26T18:42:03.242Z,47.60
2019-03-26T18:44:08.582Z,47.50
2019-03-26T18:46:14.074Z,47.60
2019-03-26T18:48:19.397Z,47.50
2019-03-26T18:50:25.098Z,47.50
2019-03-26T18:52:30.483Z,47.50
2019-03-26T18:54:35.868Z,47.30
2019-03-26T18:56:41.366Z,47.30
2019-03-26T18:58:46.816Z,47.30
2019-03-26T19:00:52.200Z,47.30
2019-03-26T19:02:57.494Z,47.30
2019-03-26T19:05:02.873Z,47.30
2019-03-26T19:07:08.239Z,47.30
2019-03-26T19:09:13.601Z,47.30
2019-03-26T19:11:19.217Z,47.40
2019-03-26T19:13:24.690Z,47.40
2019-03-26T19:15:30.073Z,47.60
2019-03-26T19:17:35.525Z,47.60
2019-03-26T19:19:40.938Z,47.70
2019-03-26T19:21:46.483Z,47.70
2019-03-26T19:24:03.390Z,47.70
2019-03-26T19:25:58.837Z,47.60
2019-03-26T19:28:04.149Z,47.60
2019-03-26T19:30:10.647Z,47.70
2019-03-26T19:32:16.045Z,47.60
2019-03-26T19:34:21.386Z,47.60
2019-03-26T19:36:26.994Z,47.60
2019-03-26T19:38:32.326Z,47.50
2019-03-26T19:40:37.700Z,47.50
2019-03-26T19:42:42.989Z,47.40
2019-03-26T19:44:48.334Z,47.50
2019-03-26T19:46:53.879Z,47.30
2019-03-26T19:48:59.312Z,47.10
2019-03-26T19:51:04.727Z,47.30
2019-03-26T19:53:10.111Z,47.20
2019-03-26T19:55:16.424Z,47.20
2019-03-26T19:57:38.752Z,47.10
2019-03-26T19:59:45.012Z,47.20
2019-03-26T20:01:51.368Z,47.00
2019-03-26T20:03:57.353Z,47.00
2019-03-26T20:06:12.875Z,47.00
2019-03-26T20:08:22.176Z,47.00
2019-03-26T20:10:31.589Z,47.00
2019-03-26T20:12:36.908Z,46.90
2019-03-26T20:14:43.234Z,46.90
2019-03-26T20:16:51.513Z,46.90
2019-03-26T20:18:57.474Z,46.80
2019-03-26T20:21:02.841Z,46.80
2019-03-26T20:23:08.271Z,46.80
2019-03-26T20:25:13.612Z,46.80
2019-03-26T20:27:19.034Z,46.70
2019-03-26T20:29:24.410Z,46.70
2019-03-26T20:31:31.955Z,46.80
2019-03-26T20:33:38.231Z,46.80
2019-03-26T20:35:43.557Z,46.70
2019-03-26T20:37:48.821Z,46.70
2019-03-26T20:39:54.150Z,46.60
2019-03-26T20:41:59.566Z,46.60
2019-03-26T20:44:16.877Z,46.50
2019-03-26T20:46:22.416Z,46.50
2019-03-26T20:48:27.801Z,46.50
2019-03-26T20:50:33.200Z,46.50
2019-03-26T20:52:38.979Z,46.60
2019-03-26T20:54:44.333Z,46.50
2019-03-26T20:56:49.690Z,46.50
2019-03-26T20:58:55.186Z,46.50
2019-03-26T21:01:00.650Z,46.40
2019-03-26T21:03:08.986Z,46.50
2019-03-26T21:05:14.757Z,46.50
2019-03-26T21:07:20.295Z,46.40
2019-03-26T21:09:26.684Z,46.30
2019-03-26T21:11:32.195Z,46.40
2019-03-26T21:13:50.298Z,46.40
2019-03-26T21:16:31.691Z,46.30
2019-03-26T21:18:38.474Z,46.30
2019-03-26T21:20:44.954Z,46.30
2019-03-26T21:22:50.342Z,46.30
2019-03-26T21:24:56.911Z,46.30
2019-03-26T21:27:02.299Z,46.20
2019-03-26T21:29:07.785Z,46.20
2019-03-26T21:31:14.953Z,46.20
2019-03-26T21:33:20.350Z,46.20
2019-03-26T21:35:28.733Z,46.20
2019-03-26T21:37:32.761Z,46.40
2019-03-26T21:39:38.086Z,46.40
2019-03-26T21:41:43.534Z,46.40
2019-03-26T21:43:48.811Z,46.50
2019-03-26T21:45:54.211Z,46.50
2019-03-26T21:47:59.669Z,46.60
2019-03-26T21:50:05.500Z,46.70
2019-03-26T21:52:10.889Z,46.70
2019-03-26T21:54:16.266Z,46.80
2019-03-26T21:56:21.511Z,46.80
2019-03-26T21:58:26.874Z,46.90
2019-03-26T22:00:32.475Z,47.00
2019-03-26T22:02:37.870Z,47.00
2019-03-26T22:04:43.142Z,47.10
2019-03-26T22:06:49.373Z,47.10
2019-03-26T22:08:54.729Z,47.10
2019-03-26T22:11:00.107Z,47.20
2019-03-26T22:13:05.489Z,47.20
2019-03-26T22:15:11.329Z,47.20
2019-03-26T22:17:16.764Z,47.30
2019-03-26T22:19:28.448Z,47.40
2019-03-26T22:21:29.736Z,47.30
2019-03-26T22:23:35.072Z,47.40
2019-03-26T22:25:40.445Z,47.40
2019-03-26T22:27:45.868Z,47.40
2019-03-26T22:29:51.229Z,47.40
2019-03-26T22:31:57.583Z,47.40
2019-03-26T22:34:03.069Z,47.40
2019-03-26T22:36:08.408Z,47.60
2019-03-26T22:38:13.739Z,47.50
2019-03-26T22:40:19.101Z,47.60
2019-03-26T22:42:24.429Z,47.50
2019-03-26T22:44:31.594Z,47.50
2019-03-26T22:46:36.682Z,47.60
2019-03-26T22:48:42.131Z,47.60
2019-03-26T22:50:47.489Z,47.60
2019-03-26T22:52:52.740Z,47.60
2019-03-26T22:54:58.114Z,47.50
2019-03-26T22:57:04.458Z,47.60
2019-03-26T22:59:09.869Z,47.50
2019-03-26T23:01:15.374Z,47.60
2019-03-26T23:03:22.406Z,47.60
2019-03-26T23:05:27.752Z,47.70
2019-03-26T23:07:33.039Z,47.50
2019-03-26T23:09:39.160Z,47.60
2019-03-26T23:11:44.628Z,47.60
2019-03-26T23:13:49.942Z,47.60
2019-03-26T23:15:55.978Z,47.50
2019-03-26T23:18:02.970Z,47.60
2019-03-26T23:20:08.451Z,47.60
2019-03-26T23:22:13.836Z,47.60
2019-03-26T23:24:19.188Z,47.60
2019-03-26T23:26:24.959Z,47.50
2019-03-26T23:28:30.612Z,47.60
2019-03-26T23:30:36.431Z,47.70
2019-03-26T23:32:41.789Z,47.60
2019-03-26T23:34:47.147Z,47.60
2019-03-26T23:36:52.568Z,47.60
2019-03-26T23:38:57.929Z,47.70
2019-03-26T23:41:03.206Z,47.70
2019-03-26T23:43:08.495Z,47.70
2019-03-26T23:45:14.177Z,47.70
2019-03-26T23:47:19.588Z,47.70
2019-03-26T23:49:24.899Z,47.70
2019-03-26T23:51:30.307Z,47.70
2019-03-26T23:53:35.594Z,47.70
2019-03-26T23:55:41.031Z,47.70
2019-03-26T23:57:46.494Z,47.70
2019-03-26T23:59:51.733Z,47.80
